createdAt,value
2022-11-12T00:00:20.717Z,13.47
2022-11-12T00:03:15.863Z,15.10
2022-11-12T00:06:02.003Z,13.20
2022-11-12T00:08:48.211Z,13.50
2022-11-12T00:11:34.817Z,14.13
2022-11-12T00:14:21.010Z,14.43
2022-11-12T00:17:06.945Z,13.47
2022-11-12T00:19:54.164Z,14.50
2022-11-12T00:22:40.223Z,14.93
2022-11-12T00:25:26.402Z,15.57
2022-11-12T00:28:12.090Z,13.70
2022-11-12T00:30:58.313Z,14.13
2022-11-12T00:33:44.697Z,15.63
2022-11-12T00:36:31.095Z,14.63
2022-11-12T00:39:16.882Z,14.37
2022-11-12T00:42:03.273Z,13.37
2022-11-12T00:44:50.090Z,14.57
2022-11-12T00:47:36.444Z,15.90
2022-11-12T00:50:24.257Z,14.63
2022-11-12T00:53:10.330Z,15.97
2022-11-12T00:56:06.567Z,15.40
2022-11-12T00:58:52.821Z,15.33
2022-11-12T01:01:39.759Z,16.20
2022-11-12T01:04:26.398Z,17.13
2022-11-12T01:07:12.637Z,16.50
2022-11-12T01:09:58.690Z,17.77
2022-11-12T01:12:44.370Z,17.47
2022-11-12T01:15:30.696Z,17.53
2022-11-12T01:18:16.380Z,19.40
2022-11-12T01:21:03.847Z,20.33
2022-11-12T01:23:50.030Z,21.43
2022-11-12T01:26:36.545Z,16.33
2022-11-12T01:29:22.512Z,16.03
2022-11-12T01:32:08.946Z,16.17
2022-11-12T01:34:55.248Z,18.43
2022-11-12T01:37:41.563Z,20.27
2022-11-12T01:40:27.834Z,21.30
2022-11-12T01:43:14.732Z,23.10
2022-11-12T01:46:05.367Z,23.47
2022-11-12T01:49:01.669Z,23.97
2022-11-12T01:51:51.763Z,22.40
2022-11-12T01:54:39.742Z,24.93
2022-11-12T01:57:34.890Z,26.13
2022-11-12T02:00:21.757Z,29.53
2022-11-12T02:03:15.147Z,28.67
2022-11-12T02:06:08.033Z,27.93
2022-11-12T02:08:54.186Z,26.60
2022-11-12T02:11:40.201Z,28.27
2022-11-12T02:14:26.987Z,28.13
2022-11-12T02:17:13.233Z,30.13
2022-11-12T02:20:00.715Z,30.50
2022-11-12T02:22:46.918Z,32.37
2022-11-12T02:25:33.983Z,32.67
2022-11-12T02:28:20.635Z,33.50
2022-11-12T02:31:06.635Z,32.90
2022-11-12T02:33:53.377Z,32.47
2022-11-12T02:36:39.683Z,31.07
2022-11-12T02:39:29.158Z,33.87
2022-11-12T02:42:15.248Z,31.50
2022-11-12T02:45:01.837Z,32.93
2022-11-12T02:47:48.300Z,31.47
2022-11-12T02:50:34.537Z,31.30
2022-11-12T02:53:20.265Z,32.70
2022-11-12T02:56:06.770Z,35.07
2022-11-12T02:58:52.855Z,34.53
2022-11-12T03:01:38.796Z,32.00
2022-11-12T03:04:27.701Z,33.40
2022-11-12T03:07:15.709Z,32.77
2022-11-12T03:10:02.096Z,31.90
2022-11-12T03:12:48.458Z,41.57
2022-11-12T03:15:34.232Z,47.87
2022-11-12T03:18:20.428Z,35.80
2022-11-12T03:21:06.564Z,30.30
2022-11-12T03:23:52.941Z,30.20
2022-11-12T03:26:38.701Z,28.40
2022-11-12T03:29:26.329Z,31.13
2022-11-12T03:32:12.408Z,31.00
2022-11-12T03:34:58.558Z,33.67
2022-11-12T03:37:44.455Z,26.43
2022-11-12T03:40:32.190Z,27.33
2022-11-12T03:43:17.885Z,28.40
2022-11-12T03:46:04.029Z,27.03
2022-11-12T03:48:49.937Z,25.70
2022-11-12T03:51:36.192Z,29.60
2022-11-12T03:54:22.438Z,30.30
2022-11-12T03:57:08.482Z,26.73
2022-11-12T03:59:54.185Z,25.03
2022-11-12T04:02:41.022Z,23.33
2022-11-12T04:05:46.560Z,23.13
2022-11-12T04:08:38.902Z,32.17
2022-11-12T04:11:24.970Z,41.73
2022-11-12T04:14:11.306Z,29.60
2022-11-12T04:17:15.775Z,22.20
2022-11-12T04:20:20.632Z,21.90
2022-11-12T04:23:06.649Z,21.27
2022-11-12T04:26:11.757Z,21.30
2022-11-12T04:29:16.616Z,21.53
2022-11-12T04:32:02.810Z,24.47
2022-11-12T04:34:48.969Z,18.70
2022-11-12T04:37:45.250Z,18.23
2022-11-12T04:40:50.574Z,18.00
2022-11-12T04:43:55.548Z,17.87
2022-11-12T04:46:41.533Z,18.17
2022-11-12T04:49:28.296Z,20.30
2022-11-12T04:52:14.654Z,19.67
2022-11-12T04:55:01.592Z,18.07
2022-11-12T04:57:47.671Z,17.30
2022-11-12T05:00:33.808Z,17.13
2022-11-12T05:03:19.825Z,16.50
2022-11-12T05:06:30.185Z,14.97
2022-11-12T05:09:16.074Z,15.33
2022-11-12T05:12:02.133Z,15.90
2022-11-12T05:14:47.969Z,14.10
2022-11-12T05:17:34.250Z,14.40
2022-11-12T05:20:20.171Z,13.10
2022-11-12T05:23:07.567Z,11.70
2022-11-12T05:25:53.799Z,13.17
2022-11-12T05:28:40.137Z,12.93
2022-11-12T05:31:26.132Z,13.17
2022-11-12T05:34:13.068Z,13.77
2022-11-12T05:36:59.216Z,17.57
2022-11-12T05:39:45.199Z,18.10
2022-11-12T05:42:30.993Z,19.20
2022-11-12T05:45:17.522Z,14.33
2022-11-12T05:48:03.685Z,12.10
2022-11-12T05:51:13.392Z,12.43
2022-11-12T05:54:00.103Z,11.80
2022-11-12T05:56:47.158Z,12.83
2022-11-12T05:59:33.175Z,13.20
2022-11-12T06:02:19.331Z,12.67
2022-11-12T06:05:05.293Z,12.43
2022-11-12T06:07:51.512Z,12.20
2022-11-12T06:10:37.580Z,12.00
2022-11-12T06:13:24.958Z,10.90
2022-11-12T06:16:10.923Z,11.30
2022-11-12T06:18:57.632Z,11.07
2022-11-12T06:21:43.543Z,10.63
2022-11-12T06:24:34.905Z,10.03
2022-11-12T06:27:21.811Z,10.60
2022-11-12T06:30:09.121Z,10.57
2022-11-12T06:32:55.415Z,10.17
2022-11-12T06:35:43.121Z,10.33
2022-11-12T06:38:33.985Z,10.73
2022-11-12T06:41:20.323Z,10.07
2022-11-12T06:44:07.011Z,9.67
2022-11-12T06:46:53.086Z,10.50
2022-11-12T06:49:38.889Z,9.97
2022-11-12T06:52:25.113Z,9.97
2022-11-12T06:55:11.358Z,10.20
2022-11-12T06:57:57.699Z,10.53
2022-11-12T07:00:43.967Z,10.07
2022-11-12T07:03:29.869Z,9.73
2022-11-12T07:06:20.675Z,8.83
2022-11-12T07:09:07.956Z,10.07
2022-11-12T07:11:53.824Z,9.47
2022-11-12T07:14:40.009Z,9.77
2022-11-12T07:17:26.397Z,9.73
2022-11-12T07:20:13.262Z,10.07
2022-11-12T07:23:02.269Z,9.70
2022-11-12T07:26:06.358Z,10.43
2022-11-12T07:28:53.210Z,8.87
2022-11-12T07:31:40.404Z,10.90
2022-11-12T07:34:26.546Z,10.07
2022-11-12T07:37:13.259Z,11.23
2022-11-12T07:40:00.295Z,10.83
2022-11-12T07:42:47.191Z,11.53
2022-11-12T07:45:33.693Z,11.43
2022-11-12T07:48:20.214Z,12.07
2022-11-12T07:51:11.977Z,12.70
2022-11-12T07:54:00.151Z,12.77
2022-11-12T07:56:46.635Z,12.27
2022-11-12T07:59:33.086Z,12.90
2022-11-12T08:02:19.406Z,14.07
2022-11-12T08:05:12.008Z,12.30
2022-11-12T08:08:00.782Z,13.07
2022-11-12T08:10:47.160Z,16.00
2022-11-12T08:13:33.687Z,14.07
2022-11-12T08:16:20.659Z,14.57
2022-11-12T08:19:07.236Z,13.23
2022-11-12T08:21:53.963Z,28.80
2022-11-12T08:24:40.448Z,14.60
2022-11-12T08:27:27.711Z,20.37
2022-11-12T08:30:15.165Z,17.13
2022-11-12T08:33:06.904Z,14.33
2022-11-12T08:35:53.378Z,19.43
2022-11-12T08:38:40.531Z,13.40
2022-11-12T08:41:26.818Z,14.90
2022-11-12T08:44:13.747Z,14.47
2022-11-12T08:46:59.949Z,15.27
2022-11-12T08:49:48.216Z,15.27
2022-11-12T08:52:34.708Z,15.60
2022-11-12T08:55:21.359Z,15.53
2022-11-12T08:58:07.485Z,16.23
2022-11-12T09:00:55.201Z,14.70
2022-11-12T09:03:41.137Z,15.27
2022-11-12T09:06:27.611Z,14.27
2022-11-12T09:09:13.634Z,15.00
2022-11-12T09:12:04.565Z,13.13
2022-11-12T09:15:09.665Z,16.87
2022-11-12T09:18:06.222Z,15.23
2022-11-12T09:20:52.428Z,15.30
2022-11-12T09:23:39.053Z,14.07
2022-11-12T09:26:25.111Z,16.00
2022-11-12T09:29:11.754Z,16.80
2022-11-12T09:31:59.848Z,16.13
2022-11-12T09:34:45.953Z,15.00
2022-11-12T09:37:32.050Z,16.50
2022-11-12T09:40:20.469Z,14.87
2022-11-12T09:43:18.879Z,17.20
2022-11-12T09:46:28.892Z,13.40
2022-11-12T09:49:31.575Z,16.67
2022-11-12T09:52:25.156Z,20.03
2022-11-12T09:55:26.473Z,17.37
2022-11-12T09:58:18.448Z,18.47
2022-11-12T10:01:21.463Z,18.00
2022-11-12T10:04:28.860Z,18.13
2022-11-12T10:07:26.858Z,57.53
2022-11-12T10:10:43.600Z,27.43
2022-11-12T10:13:48.429Z,23.60
2022-11-12T10:16:56.431Z,27.17
2022-11-12T10:19:48.654Z,34.53
2022-11-12T10:23:13.871Z,23.93
2022-11-12T10:26:02.641Z,21.50
2022-11-12T10:28:54.088Z,16.67
2022-11-12T10:31:40.485Z,23.27
2022-11-12T10:34:26.884Z,16.53
2022-11-12T10:37:21.108Z,19.47
2022-11-12T10:40:25.367Z,22.13
2022-11-12T10:43:17.388Z,21.97
2022-11-12T10:46:21.799Z,18.20
2022-11-12T10:49:22.098Z,20.57
2022-11-12T10:52:22.410Z,30.30
2022-11-12T10:55:19.130Z,21.73
2022-11-12T10:58:11.956Z,21.20
2022-11-12T11:01:00.826Z,19.90
2022-11-12T11:03:58.179Z,21.47
2022-11-12T11:06:44.593Z,21.37
2022-11-12T11:09:31.449Z,18.60
2022-11-12T11:12:29.891Z,25.73
2022-11-12T11:15:16.634Z,24.03
2022-11-12T11:18:02.940Z,29.67
2022-11-12T11:21:15.977Z,26.53
2022-11-12T11:24:26.747Z,19.80
2022-11-12T11:27:29.489Z,17.03
2022-11-12T11:30:23.292Z,19.40
2022-11-12T11:33:56.631Z,11.73
2022-11-12T11:37:17.014Z,11.00
2022-11-12T11:40:21.702Z,11.97
2022-11-12T11:43:32.457Z,9.70
2022-11-12T11:46:27.429Z,9.37
2022-11-12T11:49:21.474Z,8.87
2022-11-12T11:52:38.043Z,9.50
2022-11-12T11:55:37.537Z,13.53
2022-11-12T11:59:05.413Z,9.70
2022-11-12T12:02:37.035Z,12.50
2022-11-12T12:05:38.302Z,9.93
2022-11-12T12:08:53.418Z,10.10
2022-11-12T12:11:46.227Z,9.37
2022-11-12T12:14:38.983Z,9.67
2022-11-12T12:17:32.715Z,9.30
2022-11-12T12:20:50.817Z,9.17
2022-11-12T12:23:37.933Z,8.17
2022-11-12T12:26:55.279Z,12.23
2022-11-12T12:30:26.753Z,12.17
2022-11-12T12:33:37.279Z,8.60
2022-11-12T12:36:30.145Z,10.07
2022-11-12T12:39:58.382Z,10.10
2022-11-12T12:42:54.135Z,8.03
2022-11-12T12:45:42.724Z,9.33
2022-11-12T12:48:42.729Z,8.87
2022-11-12T12:51:31.223Z,9.17
2022-11-12T12:54:37.407Z,10.03
2022-11-12T12:57:33.213Z,10.90
2022-11-12T13:00:29.784Z,11.60
2022-11-12T13:03:49.498Z,8.90
2022-11-12T13:06:40.035Z,12.07
2022-11-12T13:09:28.414Z,7.90
2022-11-12T13:12:19.811Z,7.33
2022-11-12T13:15:16.730Z,10.20
2022-11-12T13:18:04.568Z,9.70
2022-11-12T13:21:12.712Z,11.03
2022-11-12T13:24:07.886Z,14.93
2022-11-12T13:26:57.376Z,10.83
2022-11-12T13:29:45.844Z,12.87
2022-11-12T13:32:56.185Z,9.97
2022-11-12T13:35:42.827Z,12.37
2022-11-12T13:38:29.385Z,11.40
2022-11-12T13:41:40.235Z,43.50
2022-11-12T13:44:28.061Z,21.30
2022-11-12T13:47:22.413Z,16.97
2022-11-12T13:50:13.923Z,15.17
2022-11-12T13:53:01.152Z,19.00
2022-11-12T13:55:54.233Z,16.47
2022-11-12T13:58:41.098Z,16.30
2022-11-12T14:01:34.964Z,14.57
2022-11-12T14:04:26.043Z,16.53
2022-11-12T14:07:56.426Z,17.80
2022-11-12T14:11:02.324Z,21.77
2022-11-12T14:14:19.636Z,22.10
2022-11-12T14:17:22.373Z,18.03
2022-11-12T14:20:32.514Z,19.73
2022-11-12T14:23:24.937Z,30.83
2022-11-12T14:26:12.951Z,34.47
2022-11-12T14:28:59.943Z,28.87
2022-11-12T14:31:46.856Z,25.67
2022-11-12T14:34:35.145Z,26.13
2022-11-12T14:37:43.630Z,32.30
2022-11-12T14:40:36.447Z,40.70
2022-11-12T14:43:27.956Z,38.57
2022-11-12T14:46:36.757Z,72.90
2022-11-12T14:49:22.892Z,49.13
2022-11-12T14:52:29.059Z,34.17
2022-11-12T14:55:25.082Z,16.43
2022-11-12T14:58:15.566Z,21.07
2022-11-12T15:01:59.355Z,14.77
2022-11-12T15:04:27.070Z,13.97
2022-11-12T15:07:23.869Z,14.90
2022-11-12T15:10:45.337Z,14.53
2022-11-12T15:13:40.105Z,13.00
2022-11-12T15:16:29.610Z,18.80
2022-11-12T15:19:24.635Z,17.47
2022-11-12T15:22:21.263Z,16.03
2022-11-12T15:25:25.336Z,16.47
2022-11-12T15:28:23.162Z,18.30
2022-11-12T15:31:21.941Z,13.83
2022-11-12T15:34:29.880Z,15.30
2022-11-12T15:37:18.721Z,13.60
2022-11-12T15:40:12.611Z,56.63
2022-11-12T15:42:59.389Z,17.53
2022-11-12T15:45:56.596Z,17.00
2022-11-12T15:48:42.760Z,24.53
2022-11-12T15:51:29.770Z,25.13
2022-11-12T15:54:16.596Z,30.43
2022-11-12T15:57:03.736Z,43.17
2022-11-12T16:00:04.538Z,24.30
2022-11-12T16:03:01.599Z,23.70
2022-11-12T16:05:48.820Z,29.27
2022-11-12T16:08:35.464Z,26.27
2022-11-12T16:11:37.456Z,21.67
2022-11-12T16:14:25.193Z,20.30
2022-11-12T16:17:16.747Z,38.63
2022-11-12T16:20:09.226Z,24.83
2022-11-12T16:22:56.046Z,25.37
2022-11-12T16:25:44.179Z,27.03
2022-11-12T16:28:30.614Z,31.33
2022-11-12T16:31:17.637Z,29.70
2022-11-12T16:34:04.098Z,22.77
2022-11-12T16:36:51.583Z,19.93
2022-11-12T16:39:38.425Z,19.00
2022-11-12T16:42:25.323Z,18.27
2022-11-12T16:45:23.151Z,17.33
2022-11-12T16:48:21.698Z,19.73
2022-11-12T16:51:16.969Z,20.93
2022-11-12T16:54:03.956Z,15.23
2022-11-12T16:56:51.031Z,13.63
2022-11-12T16:59:37.731Z,12.33
2022-11-12T17:02:24.236Z,13.03
2022-11-12T17:05:15.629Z,14.33
2022-11-12T17:08:04.217Z,20.23
2022-11-12T17:10:50.985Z,15.70
2022-11-12T17:13:38.915Z,22.57
2022-11-12T17:16:25.591Z,16.20
2022-11-12T17:19:12.934Z,16.67
2022-11-12T17:21:59.734Z,19.10
2022-11-12T17:24:46.600Z,23.83
2022-11-12T17:27:33.275Z,31.27
2022-11-12T17:30:19.436Z,23.97
2022-11-12T17:33:06.424Z,23.17
2022-11-12T17:35:53.080Z,21.37
2022-11-12T17:38:39.911Z,23.73
2022-11-12T17:41:30.772Z,21.23
2022-11-12T17:44:19.796Z,26.83
2022-11-12T17:47:07.662Z,25.43
2022-11-12T17:49:55.069Z,28.00
2022-11-12T17:52:41.581Z,24.10
2022-11-12T17:55:28.972Z,22.17
2022-11-12T17:58:15.185Z,18.87
2022-11-12T18:01:15.453Z,15.93
2022-11-12T18:04:02.502Z,13.43
2022-11-12T18:06:49.533Z,14.43
2022-11-12T18:09:36.259Z,12.57
2022-11-12T18:12:23.142Z,13.87
2022-11-12T18:15:09.732Z,14.13
2022-11-12T18:17:56.199Z,14.00
2022-11-12T18:20:42.973Z,14.57
2022-11-12T18:23:29.480Z,16.97
2022-11-12T18:26:18.461Z,16.70
2022-11-12T18:29:05.219Z,17.60
2022-11-12T18:31:51.473Z,15.50
2022-11-12T18:34:42.154Z,18.33
2022-11-12T18:37:29.211Z,16.90
2022-11-12T18:40:18.139Z,17.43
2022-11-12T18:43:07.393Z,21.57
2022-11-12T18:45:59.941Z,20.33
2022-11-12T18:48:47.904Z,17.97
2022-11-12T18:51:34.974Z,18.40
2022-11-12T18:54:26.428Z,19.00
2022-11-12T18:57:13.345Z,19.37
2022-11-12T19:00:00.350Z,20.10
2022-11-12T19:02:47.469Z,19.33
2022-11-12T19:05:33.956Z,19.70
2022-11-12T19:08:21.563Z,22.17
2022-11-12T19:11:11.406Z,21.07
2022-11-12T19:13:59.406Z,19.30
2022-11-12T19:16:46.709Z,19.13
2022-11-12T19:19:34.438Z,24.20
2022-11-12T19:22:20.792Z,23.63
2022-11-12T19:25:10.930Z,25.57
2022-11-12T19:27:58.969Z,26.33
2022-11-12T19:30:46.380Z,28.80
2022-11-12T19:33:33.634Z,24.70
2022-11-12T19:36:24.210Z,22.27
2022-11-12T19:39:11.752Z,23.10
2022-11-12T19:42:00.162Z,19.43
2022-11-12T19:44:49.573Z,21.30
2022-11-12T19:47:37.232Z,21.73
2022-11-12T19:50:24.979Z,23.23
2022-11-12T19:53:12.980Z,22.97
2022-11-12T19:56:04.990Z,22.73
2022-11-12T19:58:56.514Z,21.90
2022-11-12T20:01:43.534Z,22.23
2022-11-12T20:04:30.771Z,21.50
2022-11-12T20:07:17.722Z,21.20
2022-11-12T20:10:05.190Z,22.27
2022-11-12T20:12:52.048Z,22.77
2022-11-12T20:15:40.299Z,23.73
2022-11-12T20:18:27.378Z,20.97
2022-11-12T20:21:15.582Z,25.63
2022-11-12T20:24:02.642Z,22.70
2022-11-12T20:26:50.070Z,24.50
2022-11-12T20:29:37.223Z,25.30
2022-11-12T20:32:24.421Z,26.93
2022-11-12T20:35:19.415Z,24.70
2022-11-12T20:38:09.819Z,22.27
2022-11-12T20:41:03.115Z,22.87
2022-11-12T20:43:53.468Z,23.93
2022-11-12T20:46:40.704Z,26.23
2022-11-12T20:49:27.838Z,26.13
2022-11-12T20:52:14.017Z,23.47
2022-11-12T20:55:00.260Z,25.40
2022-11-12T20:57:47.220Z,24.63
2022-11-12T21:00:34.955Z,23.80
2022-11-12T21:03:22.678Z,25.13
2022-11-12T21:06:18.178Z,25.47
2022-11-12T21:09:05.260Z,24.70
2022-11-12T21:11:53.101Z,24.90
2022-11-12T21:14:39.995Z,24.43
2022-11-12T21:17:26.772Z,22.77
2022-11-12T21:20:13.287Z,24.00
2022-11-12T21:23:00.136Z,23.63
2022-11-12T21:25:46.912Z,23.83
2022-11-12T21:28:38.643Z,24.90
2022-11-12T21:31:27.094Z,24.17
2022-11-12T21:34:14.251Z,23.57
2022-11-12T21:37:01.392Z,31.33
2022-11-12T21:39:49.520Z,33.40
2022-11-12T21:42:35.763Z,28.40
2022-11-12T21:45:22.688Z,26.10
2022-11-12T21:48:09.272Z,28.27
2022-11-12T21:50:56.502Z,27.97
2022-11-12T21:53:44.935Z,27.97
2022-11-12T21:56:33.614Z,26.70
2022-11-12T21:59:20.334Z,28.93
2022-11-12T22:02:07.335Z,32.10
2022-11-12T22:04:54.046Z,29.77
2022-11-12T22:07:40.338Z,28.67
2022-11-12T22:10:26.709Z,28.37
2022-11-12T22:13:26.414Z,27.73
2022-11-12T22:16:15.791Z,27.07
2022-11-12T22:19:02.124Z,28.93
2022-11-12T22:21:48.609Z,27.40
2022-11-12T22:24:34.877Z,26.90
2022-11-12T22:27:21.306Z,26.60
2022-11-12T22:30:08.481Z,29.87
2022-11-12T22:32:54.969Z,27.23
2022-11-12T22:35:41.906Z,26.70
2022-11-12T22:38:33.646Z,25.27
2022-11-12T22:41:23.076Z,27.63
2022-11-12T22:44:09.833Z,26.37
2022-11-12T22:46:56.710Z,26.53
2022-11-12T22:49:43.012Z,27.50
2022-11-12T22:52:29.559Z,27.57
2022-11-12T22:55:15.786Z,26.07
2022-11-12T22:58:02.487Z,27.53
2022-11-12T23:00:49.029Z,28.77
2022-11-12T23:03:35.786Z,27.10
2022-11-12T23:06:22.583Z,25.90
2022-11-12T23:09:14.725Z,26.20
2022-11-12T23:12:00.883Z,27.30
2022-11-12T23:14:47.805Z,26.53
2022-11-12T23:17:34.259Z,27.50
2022-11-12T23:20:21.471Z,27.37
2022-11-12T23:23:07.736Z,27.37
2022-11-12T23:25:54.626Z,28.50
2022-11-12T23:28:40.880Z,29.40
2022-11-12T23:31:29.869Z,27.67
2022-11-12T23:34:16.067Z,29.20
2022-11-12T23:37:02.612Z,26.47
2022-11-12T23:39:48.916Z,29.00
2022-11-12T23:42:35.659Z,27.20
2022-11-12T23:45:22.002Z,27.97
2022-11-12T23:48:08.536Z,30.20
2022-11-12T23:51:02.758Z,30.43
2022-11-12T23:53:49.813Z,27.90
2022-11-12T23:56:36.445Z,30.13
2022-11-12T23:59:22.939Z,29.67
